sensor_id;sensor_type;location;lat;lon;timestamp;temperature;humidity
1415;DHT22;702;49.466;11.086;2022-10-03T00:02:34;9.70;99.90
1415;DHT22;702;49.466;11.086;2022-10-03T00:05:30;9.90;99.90
1415;DHT22;702;49.466;11.086;2022-10-03T00:08:08;9.90;99.90
1415;DHT22;702;49.466;11.086;2022-10-03T00:10:55;9.90;99.90
1415;DHT22;702;49.466;11.086;2022-10-03T00:13:41;10.00;99.90
1415;DHT22;702;49.466;11.086;2022-10-03T00:16:15;9.90;99.90
1415;DHT22;702;49.466;11.086;2022-10-03T00:18:54;9.80;99.90
1415;DHT22;702;49.466;11.086;2022-10-03T00:21:34;9.80;99.90
1415;DHT22;702;49.466;11.086;2022-10-03T00:24:17;9.70;99.90
1415;DHT22;702;49.466;11.086;2022-10-03T00:26:53;9.70;99.90
1415;DHT22;702;49.466;11.086;2022-10-03T00:29:39;9.70;99.90
1415;DHT22;702;49.466;11.086;2022-10-03T00:32:22;9.70;99.90
1415;DHT22;702;49.466;11.086;2022-10-03T00:35:04;9.80;99.90
1415;DHT22;702;49.466;11.086;2022-10-03T00:37:45;9.90;99.90
1415;DHT22;702;49.466;11.086;2022-10-03T00:40:50;9.90;99.90
1415;DHT22;702;49.466;11.086;2022-10-03T00:44:08;10.00;99.90
1415;DHT22;702;49.466;11.086;2022-10-03T00:54:07;10.20;99.90
1415;DHT22;702;49.466;11.086;2022-10-03T00:56:58;10.20;99.90
1415;DHT22;702;49.466;11.086;2022-10-03T01:00:00;10.20;99.90
1415;DHT22;702;49.466;11.086;2022-10-03T01:02:59;10.20;99.90
1415;DHT22;702;49.466;11.086;2022-10-03T01:05:46;10.30;99.90
1415;DHT22;702;49.466;11.086;2022-10-03T01:08:46;10.30;99.90
1415;DHT22;702;49.466;11.086;2022-10-03T01:11:39;10.20;99.90
1415;DHT22;702;49.466;11.086;2022-10-03T01:14:22;10.10;99.90
1415;DHT22;702;49.466;11.086;2022-10-03T01:17:09;10.10;99.90
1415;DHT22;702;49.466;11.086;2022-10-03T01:19:58;10.10;99.90
1415;DHT22;702;49.466;11.086;2022-10-03T01:26:32;10.00;99.90
1415;DHT22;702;49.466;11.086;2022-10-03T01:29:29;9.90;99.90
1415;DHT22;702;49.466;11.086;2022-10-03T01:32:24;10.00;99.90
1415;DHT22;702;49.466;11.086;2022-10-03T01:35:05;10.00;99.90
1415;DHT22;702;49.466;11.086;2022-10-03T01:37:44;10.00;99.90
1415;DHT22;702;49.466;11.086;2022-10-03T01:40:22;9.90;99.90
1415;DHT22;702;49.466;11.086;2022-10-03T01:43:02;9.90;99.90
1415;DHT22;702;49.466;11.086;2022-10-03T01:45:53;9.90;99.90
1415;DHT22;702;49.466;11.086;2022-10-03T01:48:32;9.80;99.90
1415;DHT22;702;49.466;11.086;2022-10-03T01:51:08;9.70;99.90
1415;DHT22;702;49.466;11.086;2022-10-03T01:53:52;9.70;99.90
1415;DHT22;702;49.466;11.086;2022-10-03T01:56:49;9.70;99.90
1415;DHT22;702;49.466;11.086;2022-10-03T01:59:23;9.70;99.90
1415;DHT22;702;49.466;11.086;2022-10-03T02:02:05;9.70;99.90
1415;DHT22;702;49.466;11.086;2022-10-03T02:04:58;9.70;99.90
1415;DHT22;702;49.466;11.086;2022-10-03T02:07:42;9.80;99.90
1415;DHT22;702;49.466;11.086;2022-10-03T02:10:27;9.90;99.90
1415;DHT22;702;49.466;11.086;2022-10-03T02:13:08;9.80;99.90
1415;DHT22;702;49.466;11.086;2022-10-03T02:15:54;9.90;99.90
1415;DHT22;702;49.466;11.086;2022-10-03T02:18:33;9.80;99.90
1415;DHT22;702;49.466;11.086;2022-10-03T02:21:12;9.80;99.90
1415;DHT22;702;49.466;11.086;2022-10-03T02:23:43;9.80;99.90
1415;DHT22;702;49.466;11.086;2022-10-03T02:26:44;9.70;99.90
1415;DHT22;702;49.466;11.086;2022-10-03T02:29:54;9.70;99.90
1415;DHT22;702;49.466;11.086;2022-10-03T02:39:38;9.60;99.90
1415;DHT22;702;49.466;11.086;2022-10-03T02:46:16;9.50;99.90
1415;DHT22;702;49.466;11.086;2022-10-03T02:52:41;9.50;99.90
1415;DHT22;702;49.466;11.086;2022-10-03T02:55:58;9.50;99.90
1415;DHT22;702;49.466;11.086;2022-10-03T02:58:59;9.50;99.90
1415;DHT22;702;49.466;11.086;2022-10-03T03:01:53;9.60;99.90
1415;DHT22;702;49.466;11.086;2022-10-03T03:04:50;9.70;99.90
1415;DHT22;702;49.466;11.086;2022-10-03T03:07:38;9.70;99.90
1415;DHT22;702;49.466;11.086;2022-10-03T03:10:57;9.70;99.90
1415;DHT22;702;49.466;11.086;2022-10-03T03:14:10;9.70;99.90
1415;DHT22;702;49.466;11.086;2022-10-03T03:17:16;9.70;99.90
1415;DHT22;702;49.466;11.086;2022-10-03T03:23:25;9.60;99.90
1415;DHT22;702;49.466;11.086;2022-10-03T03:26:26;9.60;99.90
1415;DHT22;702;49.466;11.086;2022-10-03T03:29:08;9.50;99.90
1415;DHT22;702;49.466;11.086;2022-10-03T03:31:48;9.50;99.90
1415;DHT22;702;49.466;11.086;2022-10-03T03:34:26;9.50;99.90
1415;DHT22;702;49.466;11.086;2022-10-03T03:37:01;9.40;99.90
1415;DHT22;702;49.466;11.086;2022-10-03T03:39:51;9.40;99.90
1415;DHT22;702;49.466;11.086;2022-10-03T03:42:58;9.30;99.90
1415;DHT22;702;49.466;11.086;2022-10-03T03:45:47;9.40;99.90
1415;DHT22;702;49.466;11.086;2022-10-03T03:51:32;9.20;99.90
1415;DHT22;702;49.466;11.086;2022-10-03T03:57:45;9.30;99.90
1415;DHT22;702;49.466;11.086;2022-10-03T04:00:30;9.30;99.90
1415;DHT22;702;49.466;11.086;2022-10-03T04:03:19;9.20;99.90
1415;DHT22;702;49.466;11.086;2022-10-03T04:06:27;9.10;99.90
1415;DHT22;702;49.466;11.086;2022-10-03T04:09:24;9.10;99.90
1415;DHT22;702;49.466;11.086;2022-10-03T04:12:19;9.00;99.90
1415;DHT22;702;49.466;11.086;2022-10-03T04:18:21;8.90;99.90
1415;DHT22;702;49.466;11.086;2022-10-03T04:21:31;9.00;99.90
1415;DHT22;702;49.466;11.086;2022-10-03T04:24:31;8.80;99.90
1415;DHT22;702;49.466;11.086;2022-10-03T04:27:27;8.80;99.90
1415;DHT22;702;49.466;11.086;2022-10-03T04:30:08;8.70;99.90
1415;DHT22;702;49.466;11.086;2022-10-03T04:33:02;8.60;99.90
1415;DHT22;702;49.466;11.086;2022-10-03T04:35:56;8.60;99.90
1415;DHT22;702;49.466;11.086;2022-10-03T04:38:50;8.70;99.90
1415;DHT22;702;49.466;11.086;2022-10-03T04:41:28;8.60;99.90
1415;DHT22;702;49.466;11.086;2022-10-03T04:44:16;8.60;99.90
1415;DHT22;702;49.466;11.086;2022-10-03T04:46:54;8.60;99.90
1415;DHT22;702;49.466;11.086;2022-10-03T04:49:30;8.60;99.90
1415;DHT22;702;49.466;11.086;2022-10-03T04:52:22;8.60;99.90
1415;DHT22;702;49.466;11.086;2022-10-03T04:55:01;8.60;99.90
1415;DHT22;702;49.466;11.086;2022-10-03T04:57:36;8.70;99.90
1415;DHT22;702;49.466;11.086;2022-10-03T05:00:22;8.60;99.90
1415;DHT22;702;49.466;11.086;2022-10-03T05:03:00;8.70;99.90
1415;DHT22;702;49.466;11.086;2022-10-03T05:05:42;8.70;99.90
1415;DHT22;702;49.466;11.086;2022-10-03T05:08:21;8.70;99.90
1415;DHT22;702;49.466;11.086;2022-10-03T05:11:18;8.90;99.90
1415;DHT22;702;49.466;11.086;2022-10-03T05:13:58;8.90;99.90
1415;DHT22;702;49.466;11.086;2022-10-03T05:16:41;8.90;99.90
1415;DHT22;702;49.466;11.086;2022-10-03T05:19:44;9.00;99.90
1415;DHT22;702;49.466;11.086;2022-10-03T05:22:31;9.00;99.90
1415;DHT22;702;49.466;11.086;2022-10-03T05:25:21;9.00;99.90
1415;DHT22;702;49.466;11.086;2022-10-03T05:28:05;9.00;99.90
1415;DHT22;702;49.466;11.086;2022-10-03T05:30:43;9.00;99.90
1415;DHT22;702;49.466;11.086;2022-10-03T05:33:31;9.10;99.90
1415;DHT22;702;49.466;11.086;2022-10-03T05:36:17;9.20;99.90
1415;DHT22;702;49.466;11.086;2022-10-03T05:39:23;9.20;99.90
1415;DHT22;702;49.466;11.086;2022-10-03T05:41:54;9.20;99.90
1415;DHT22;702;49.466;11.086;2022-10-03T05:44:39;9.20;99.90
1415;DHT22;702;49.466;11.086;2022-10-03T05:47:10;9.20;99.90
1415;DHT22;702;49.466;11.086;2022-10-03T05:50:16;9.30;99.90
1415;DHT22;702;49.466;11.086;2022-10-03T05:53:01;9.40;99.90
1415;DHT22;702;49.466;11.086;2022-10-03T05:55:49;9.50;99.90
1415;DHT22;702;49.466;11.086;2022-10-03T05:58:42;9.40;99.90
1415;DHT22;702;49.466;11.086;2022-10-03T06:01:52;9.30;99.90
1415;DHT22;702;49.466;11.086;2022-10-03T06:04:54;9.40;99.90
1415;DHT22;702;49.466;11.086;2022-10-03T06:07:30;9.40;99.90
1415;DHT22;702;49.466;11.086;2022-10-03T06:10:32;9.40;99.90
1415;DHT22;702;49.466;11.086;2022-10-03T06:13:19;9.40;99.90
1415;DHT22;702;49.466;11.086;2022-10-03T06:16:03;9.40;99.90
1415;DHT22;702;49.466;11.086;2022-10-03T06:19:02;9.40;99.90
1415;DHT22;702;49.466;11.086;2022-10-03T06:28:51;9.60;99.90
1415;DHT22;702;49.466;11.086;2022-10-03T06:32:12;9.60;99.90
1415;DHT22;702;49.466;11.086;2022-10-03T06:35:23;9.60;99.90
1415;DHT22;702;49.466;11.086;2022-10-03T06:38:29;9.70;99.90
1415;DHT22;702;49.466;11.086;2022-10-03T06:41:28;9.70;99.90
1415;DHT22;702;49.466;11.086;2022-10-03T06:44:20;10.00;99.90
1415;DHT22;702;49.466;11.086;2022-10-03T06:47:15;10.00;99.90
1415;DHT22;702;49.466;11.086;2022-10-03T06:50:21;10.20;99.90
1415;DHT22;702;49.466;11.086;2022-10-03T06:53:13;10.40;99.90
1415;DHT22;702;49.466;11.086;2022-10-03T06:59:50;10.60;99.90
1415;DHT22;702;49.466;11.086;2022-10-03T07:03:16;10.70;99.90
1415;DHT22;702;49.466;11.086;2022-10-03T07:06:15;10.90;99.90
1415;DHT22;702;49.466;11.086;2022-10-03T07:16:01;11.10;99.90
1415;DHT22;702;49.466;11.086;2022-10-03T07:29:13;11.40;96.50
1415;DHT22;702;49.466;11.086;2022-10-03T07:32:10;11.30;97.20
1415;DHT22;702;49.466;11.086;2022-10-03T07:39:08;11.70;97.70
1415;DHT22;702;49.466;11.086;2022-10-03T07:42:29;12.00;94.60
1415;DHT22;702;49.466;11.086;2022-10-03T07:45:36;12.10;93.60
1415;DHT22;702;49.466;11.086;2022-10-03T07:48:35;12.00;92.50
1415;DHT22;702;49.466;11.086;2022-10-03T07:51:22;11.90;93.40
1415;DHT22;702;49.466;11.086;2022-10-03T07:54:32;12.20;94.10
1415;DHT22;702;49.466;11.086;2022-10-03T07:57:35;12.40;94.10
1415;DHT22;702;49.466;11.086;2022-10-03T08:00:21;12.70;92.70
1415;DHT22;702;49.466;11.086;2022-10-03T08:06:22;13.10;90.60
1415;DHT22;702;49.466;11.086;2022-10-03T08:12:47;13.00;90.60
1415;DHT22;702;49.466;11.086;2022-10-03T08:15:29;13.30;91.20
1415;DHT22;702;49.466;11.086;2022-10-03T08:18:35;13.50;90.30
1415;DHT22;702;49.466;11.086;2022-10-03T08:21:27;13.60;88.50
1415;DHT22;702;49.466;11.086;2022-10-03T08:24:16;13.10;89.90
1415;DHT22;702;49.466;11.086;2022-10-03T08:27:03;12.70;90.30
1415;DHT22;702;49.466;11.086;2022-10-03T08:30:17;12.80;90.20
1415;DHT22;702;49.466;11.086;2022-10-03T08:36:22;13.30;89.20
1415;DHT22;702;49.466;11.086;2022-10-03T08:39:29;13.20;88.50
1415;DHT22;702;49.466;11.086;2022-10-03T08:48:52;13.70;86.50
1415;DHT22;702;49.466;11.086;2022-10-03T08:51:56;14.30;84.80
1415;DHT22;702;49.466;11.086;2022-10-03T08:58:09;14.40;84.10
1415;DHT22;702;49.466;11.086;2022-10-03T09:01:03;14.70;83.10
1415;DHT22;702;49.466;11.086;2022-10-03T09:04:22;14.60;82.90
1415;DHT22;702;49.466;11.086;2022-10-03T09:07:32;14.30;83.00
1415;DHT22;702;49.466;11.086;2022-10-03T09:14:40;14.30;83.50
1415;DHT22;702;49.466;11.086;2022-10-03T09:18:04;13.90;83.10
1415;DHT22;702;49.466;11.086;2022-10-03T09:21:19;13.80;82.70
1415;DHT22;702;49.466;11.086;2022-10-03T09:24:35;13.50;83.00
1415;DHT22;702;49.466;11.086;2022-10-03T09:30:59;13.90;82.60
1415;DHT22;702;49.466;11.086;2022-10-03T09:34:01;13.90;83.50
1415;DHT22;702;49.466;11.086;2022-10-03T09:37:02;13.60;82.00
1415;DHT22;702;49.466;11.086;2022-10-03T09:40:09;13.30;82.90
1415;DHT22;702;49.466;11.086;2022-10-03T09:43:23;13.40;83.20
1415;DHT22;702;49.466;11.086;2022-10-03T09:56:45;13.70;82.30
1415;DHT22;702;49.466;11.086;2022-10-03T09:59:55;14.10;82.00
1415;DHT22;702;49.466;11.086;2022-10-03T10:02:50;14.30;82.00
1415;DHT22;702;49.466;11.086;2022-10-03T10:06:18;14.30;82.10
1415;DHT22;702;49.466;11.086;2022-10-03T10:09:19;14.30;81.40
1415;DHT22;702;49.466;11.086;2022-10-03T10:12:37;14.20;80.90
1415;DHT22;702;49.466;11.086;2022-10-03T10:15:36;14.40;80.50
1415;DHT22;702;49.466;11.086;2022-10-03T10:18:48;14.30;79.40
1415;DHT22;702;49.466;11.086;2022-10-03T10:22:02;14.10;80.00
1415;DHT22;702;49.466;11.086;2022-10-03T10:28:21;15.00;79.60
1415;DHT22;702;49.466;11.086;2022-10-03T10:34:50;15.30;78.60
1415;DHT22;702;49.466;11.086;2022-10-03T10:41:20;15.60;77.20
1415;DHT22;702;49.466;11.086;2022-10-03T10:51:21;15.40;77.10
1415;DHT22;702;49.466;11.086;2022-10-03T10:58:16;15.50;76.20
1415;DHT22;702;49.466;11.086;2022-10-03T11:01:36;15.60;76.50
1415;DHT22;702;49.466;11.086;2022-10-03T11:08:22;15.70;75.80
1415;DHT22;702;49.466;11.086;2022-10-03T11:25:45;16.30;73.30
1415;DHT22;702;49.466;11.086;2022-10-03T11:29:30;16.10;71.00
1415;DHT22;702;49.466;11.086;2022-10-03T11:36:07;15.60;69.70
1415;DHT22;702;49.466;11.086;2022-10-03T11:39:16;15.50;69.50
1415;DHT22;702;49.466;11.086;2022-10-03T11:41:55;15.50;69.40
1415;DHT22;702;49.466;11.086;2022-10-03T11:44:30;15.70;68.80
1415;DHT22;702;49.466;11.086;2022-10-03T11:47:24;15.70;68.30
1415;DHT22;702;49.466;11.086;2022-10-03T11:50:28;15.60;69.20
1415;DHT22;702;49.466;11.086;2022-10-03T11:53:18;15.60;68.40
1415;DHT22;702;49.466;11.086;2022-10-03T11:56:01;15.50;69.00
1415;DHT22;702;49.466;11.086;2022-10-03T11:58:55;15.40;69.50
1415;DHT22;702;49.466;11.086;2022-10-03T12:01:42;15.30;68.70
1415;DHT22;702;49.466;11.086;2022-10-03T12:04:24;15.10;69.40
1415;DHT22;702;49.466;11.086;2022-10-03T12:06:59;15.10;70.30
1415;DHT22;702;49.466;11.086;2022-10-03T12:09:57;15.00;69.60
1415;DHT22;702;49.466;11.086;2022-10-03T12:12:36;14.90;69.10
1415;DHT22;702;49.466;11.086;2022-10-03T12:15:28;15.00;70.10
1415;DHT22;702;49.466;11.086;2022-10-03T12:18:04;15.20;69.30
1415;DHT22;702;49.466;11.086;2022-10-03T12:20:57;15.50;69.70
1415;DHT22;702;49.466;11.086;2022-10-03T12:23:44;15.70;67.50
1415;DHT22;702;49.466;11.086;2022-10-03T12:26:27;15.80;68.10
1415;DHT22;702;49.466;11.086;2022-10-03T12:29:09;15.70;66.10
1415;DHT22;702;49.466;11.086;2022-10-03T12:31:40;15.70;65.50
1415;DHT22;702;49.466;11.086;2022-10-03T12:34:29;15.70;66.20
1415;DHT22;702;49.466;11.086;2022-10-03T12:37:22;15.70;65.50
1415;DHT22;702;49.466;11.086;2022-10-03T12:40:16;15.60;65.80
1415;DHT22;702;49.466;11.086;2022-10-03T12:43:00;15.70;65.90
1415;DHT22;702;49.466;11.086;2022-10-03T12:45:36;15.80;65.90
1415;DHT22;702;49.466;11.086;2022-10-03T12:48:22;15.80;65.60
1415;DHT22;702;49.466;11.086;2022-10-03T12:51:07;16.10;65.70
1415;DHT22;702;49.466;11.086;2022-10-03T12:53:50;16.00;64.00
1415;DHT22;702;49.466;11.086;2022-10-03T12:56:29;16.00;64.10
1415;DHT22;702;49.466;11.086;2022-10-03T12:59:21;16.00;62.90
1415;DHT22;702;49.466;11.086;2022-10-03T13:02:18;15.80;63.00
1415;DHT22;702;49.466;11.086;2022-10-03T13:08:05;16.00;63.00
1415;DHT22;702;49.466;11.086;2022-10-03T13:10:46;16.00;63.10
1415;DHT22;702;49.466;11.086;2022-10-03T13:13:23;16.10;62.00
1415;DHT22;702;49.466;11.086;2022-10-03T13:16:13;16.00;62.10
1415;DHT22;702;49.466;11.086;2022-10-03T13:18:55;15.70;62.80
1415;DHT22;702;49.466;11.086;2022-10-03T13:21:36;16.00;62.90
1415;DHT22;702;49.466;11.086;2022-10-03T13:24:25;16.10;62.90
1415;DHT22;702;49.466;11.086;2022-10-03T13:27:04;16.00;62.70
1415;DHT22;702;49.466;11.086;2022-10-03T13:29:40;16.00;62.60
1415;DHT22;702;49.466;11.086;2022-10-03T13:32:16;15.80;62.10
1415;DHT22;702;49.466;11.086;2022-10-03T13:35:05;15.70;62.20
1415;DHT22;702;49.466;11.086;2022-10-03T13:38:11;15.70;62.80
1415;DHT22;702;49.466;11.086;2022-10-03T13:40:50;15.70;62.80
1415;DHT22;702;49.466;11.086;2022-10-03T13:43:25;15.70;63.00
1415;DHT22;702;49.466;11.086;2022-10-03T13:46:02;15.40;63.70
1415;DHT22;702;49.466;11.086;2022-10-03T13:48:33;15.20;63.20
1415;DHT22;702;49.466;11.086;2022-10-03T13:51:07;14.90;63.70
1415;DHT22;702;49.466;11.086;2022-10-03T13:54:06;14.70;64.50
1415;DHT22;702;49.466;11.086;2022-10-03T13:56:52;14.50;65.20
1415;DHT22;702;49.466;11.086;2022-10-03T14:02:38;14.40;65.90
1415;DHT22;702;49.466;11.086;2022-10-03T14:08:29;14.40;65.50
1415;DHT22;702;49.466;11.086;2022-10-03T14:11:24;14.40;65.50
1415;DHT22;702;49.466;11.086;2022-10-03T14:17:09;14.40;66.20
1415;DHT22;702;49.466;11.086;2022-10-03T14:19:46;14.40;66.40
1415;DHT22;702;49.466;11.086;2022-10-03T14:22:34;14.40;67.10
1415;DHT22;702;49.466;11.086;2022-10-03T14:25:19;14.40;67.70
1415;DHT22;702;49.466;11.086;2022-10-03T14:27:52;14.40;68.00
1415;DHT22;702;49.466;11.086;2022-10-03T14:30:21;14.30;67.60
1415;DHT22;702;49.466;11.086;2022-10-03T14:33:05;14.30;67.30
1415;DHT22;702;49.466;11.086;2022-10-03T14:35:47;14.30;67.00
1415;DHT22;702;49.466;11.086;2022-10-03T14:41:43;14.70;66.50
1415;DHT22;702;49.466;11.086;2022-10-03T14:44:15;14.80;66.60
1415;DHT22;702;49.466;11.086;2022-10-03T14:46:50;14.90;66.20
1415;DHT22;702;49.466;11.086;2022-10-03T14:49:26;15.00;66.20
1415;DHT22;702;49.466;11.086;2022-10-03T14:51:59;15.10;66.00
1415;DHT22;702;49.466;11.086;2022-10-03T14:54:29;15.30;66.50
1415;DHT22;702;49.466;11.086;2022-10-03T14:57:25;15.30;65.90
1415;DHT22;702;49.466;11.086;2022-10-03T14:59:58;15.20;66.60
1415;DHT22;702;49.466;11.086;2022-10-03T15:02:28;15.10;66.80
1415;DHT22;702;49.466;11.086;2022-10-03T15:05:05;15.10;66.50
1415;DHT22;702;49.466;11.086;2022-10-03T15:07:35;15.20;67.00
1415;DHT22;702;49.466;11.086;2022-10-03T15:10:08;15.20;66.50
1415;DHT22;702;49.466;11.086;2022-10-03T15:12:41;15.10;66.20
1415;DHT22;702;49.466;11.086;2022-10-03T15:15:14;15.00;66.40
1415;DHT22;702;49.466;11.086;2022-10-03T15:17:46;14.80;66.60
1415;DHT22;702;49.466;11.086;2022-10-03T15:20:17;14.80;67.10
1415;DHT22;702;49.466;11.086;2022-10-03T15:22:48;14.80;67.20
1415;DHT22;702;49.466;11.086;2022-10-03T15:25:20;14.80;67.10
1415;DHT22;702;49.466;11.086;2022-10-03T15:27:55;14.80;67.70
1415;DHT22;702;49.466;11.086;2022-10-03T15:30:26;14.70;67.50
1415;DHT22;702;49.466;11.086;2022-10-03T15:33:04;14.70;67.90
1415;DHT22;702;49.466;11.086;2022-10-03T15:35:35;14.70;67.90
1415;DHT22;702;49.466;11.086;2022-10-03T15:38:10;14.50;67.70
1415;DHT22;702;49.466;11.086;2022-10-03T15:40:44;14.50;68.60
1415;DHT22;702;49.466;11.086;2022-10-03T15:43:27;14.40;69.00
1415;DHT22;702;49.466;11.086;2022-10-03T15:46:02;14.40;69.70
1415;DHT22;702;49.466;11.086;2022-10-03T15:48:34;14.40;69.10
1415;DHT22;702;49.466;11.086;2022-10-03T15:51:12;14.40;69.00
1415;DHT22;702;49.466;11.086;2022-10-03T15:53:47;14.30;69.20
1415;DHT22;702;49.466;11.086;2022-10-03T15:56:19;14.20;69.30
1415;DHT22;702;49.466;11.086;2022-10-03T15:58:53;14.30;69.80
1415;DHT22;702;49.466;11.086;2022-10-03T16:01:26;14.30;69.70
1415;DHT22;702;49.466;11.086;2022-10-03T16:03:58;14.30;70.10
1415;DHT22;702;49.466;11.086;2022-10-03T16:06:29;14.30;70.10
1415;DHT22;702;49.466;11.086;2022-10-03T16:09:04;14.20;70.40
1415;DHT22;702;49.466;11.086;2022-10-03T16:11:51;14.10;70.70
1415;DHT22;702;49.466;11.086;2022-10-03T16:14:26;14.00;70.80
1415;DHT22;702;49.466;11.086;2022-10-03T16:16:58;13.90;71.40
1415;DHT22;702;49.466;11.086;2022-10-03T16:19:30;13.80;71.50
1415;DHT22;702;49.466;11.086;2022-10-03T16:22:10;13.80;71.50
1415;DHT22;702;49.466;11.086;2022-10-03T16:24:42;13.70;72.20
1415;DHT22;702;49.466;11.086;2022-10-03T16:27:18;13.60;72.40
1415;DHT22;702;49.466;11.086;2022-10-03T16:29:52;13.60;73.40
1415;DHT22;702;49.466;11.086;2022-10-03T16:32:26;13.60;73.40
1415;DHT22;702;49.466;11.086;2022-10-03T16:34:58;13.50;73.60
1415;DHT22;702;49.466;11.086;2022-10-03T16:37:28;13.40;73.90
1415;DHT22;702;49.466;11.086;2022-10-03T16:39:59;13.40;73.90
1415;DHT22;702;49.466;11.086;2022-10-03T16:42:36;13.30;74.30
1415;DHT22;702;49.466;11.086;2022-10-03T16:45:19;13.30;75.80
1415;DHT22;702;49.466;11.086;2022-10-03T16:47:50;13.20;75.80
1415;DHT22;702;49.466;11.086;2022-10-03T16:50:42;13.30;75.60
1415;DHT22;702;49.466;11.086;2022-10-03T16:53:11;13.30;75.80
1415;DHT22;702;49.466;11.086;2022-10-03T16:55:45;13.30;76.10
1415;DHT22;702;49.466;11.086;2022-10-03T16:58:19;13.30;76.10
1415;DHT22;702;49.466;11.086;2022-10-03T17:00:54;13.30;76.20
1415;DHT22;702;49.466;11.086;2022-10-03T17:03:29;13.20;76.50
1415;DHT22;702;49.466;11.086;2022-10-03T17:06:01;13.20;76.60
1415;DHT22;702;49.466;11.086;2022-10-03T17:08:32;13.20;77.00
1415;DHT22;702;49.466;11.086;2022-10-03T17:11:17;13.20;76.90
1415;DHT22;702;49.466;11.086;2022-10-03T17:13:49;13.10;77.00
1415;DHT22;702;49.466;11.086;2022-10-03T17:16:27;13.10;77.00
1415;DHT22;702;49.466;11.086;2022-10-03T17:19:12;13.10;77.20
1415;DHT22;702;49.466;11.086;2022-10-03T17:21:46;13.10;77.20
1415;DHT22;702;49.466;11.086;2022-10-03T17:24:34;13.10;77.50
1415;DHT22;702;49.466;11.086;2022-10-03T17:27:11;13.10;77.70
1415;DHT22;702;49.466;11.086;2022-10-03T17:29:45;13.00;78.30
1415;DHT22;702;49.466;11.086;2022-10-03T17:32:21;13.00;79.00
1415;DHT22;702;49.466;11.086;2022-10-03T17:34:54;12.90;78.90
1415;DHT22;702;49.466;11.086;2022-10-03T17:40:48;12.90;78.90
1415;DHT22;702;49.466;11.086;2022-10-03T17:43:22;13.00;78.80
1415;DHT22;702;49.466;11.086;2022-10-03T17:46:02;12.90;78.90
1415;DHT22;702;49.466;11.086;2022-10-03T17:48:37;12.80;79.30
1415;DHT22;702;49.466;11.086;2022-10-03T17:51:29;12.90;79.40
1415;DHT22;702;49.466;11.086;2022-10-03T17:54:00;12.80;79.50
1415;DHT22;702;49.466;11.086;2022-10-03T17:56:30;12.80;80.40
1415;DHT22;702;49.466;11.086;2022-10-03T17:59:03;12.80;80.60
1415;DHT22;702;49.466;11.086;2022-10-03T18:01:35;12.80;80.00
1415;DHT22;702;49.466;11.086;2022-10-03T18:04:14;12.70;80.30
1415;DHT22;702;49.466;11.086;2022-10-03T18:06:48;12.70;81.10
1415;DHT22;702;49.466;11.086;2022-10-03T18:09:26;12.60;81.70
1415;DHT22;702;49.466;11.086;2022-10-03T18:12:04;12.50;82.20
1415;DHT22;702;49.466;11.086;2022-10-03T18:14:45;12.30;82.20
1415;DHT22;702;49.466;11.086;2022-10-03T18:17:28;12.20;82.50
1415;DHT22;702;49.466;11.086;2022-10-03T18:20:21;12.10;83.00
1415;DHT22;702;49.466;11.086;2022-10-03T18:23:04;11.90;83.50
1415;DHT22;702;49.466;11.086;2022-10-03T18:25:47;11.70;84.20
1415;DHT22;702;49.466;11.086;2022-10-03T18:28:26;11.60;84.60
1415;DHT22;702;49.466;11.086;2022-10-03T18:30:57;11.50;85.10
1415;DHT22;702;49.466;11.086;2022-10-03T18:33:29;11.40;85.50
1415;DHT22;702;49.466;11.086;2022-10-03T18:36:08;11.20;85.90
1415;DHT22;702;49.466;11.086;2022-10-03T18:38:39;11.10;86.60
1415;DHT22;702;49.466;11.086;2022-10-03T18:41:06;11.10;87.20
1415;DHT22;702;49.466;11.086;2022-10-03T18:43:36;11.00;87.90
1415;DHT22;702;49.466;11.086;2022-10-03T18:46:16;10.90;88.70
1415;DHT22;702;49.466;11.086;2022-10-03T18:48:57;10.80;89.90
1415;DHT22;702;49.466;11.086;2022-10-03T18:51:35;10.70;90.30
1415;DHT22;702;49.466;11.086;2022-10-03T18:54:12;10.60;90.60
1415;DHT22;702;49.466;11.086;2022-10-03T18:57:04;10.50;90.80
1415;DHT22;702;49.466;11.086;2022-10-03T18:59:37;10.40;91.30
1415;DHT22;702;49.466;11.086;2022-10-03T19:02:17;10.20;92.60
1415;DHT22;702;49.466;11.086;2022-10-03T19:04:51;10.10;93.40
1415;DHT22;702;49.466;11.086;2022-10-03T19:07:24;10.10;93.80
1415;DHT22;702;49.466;11.086;2022-10-03T19:10:36;10.00;94.10
1415;DHT22;702;49.466;11.086;2022-10-03T19:13:14;9.90;95.10
1415;DHT22;702;49.466;11.086;2022-10-03T19:16:11;9.90;95.70
1415;DHT22;702;49.466;11.086;2022-10-03T19:18:45;9.80;96.10
1415;DHT22;702;49.466;11.086;2022-10-03T19:21:19;9.70;96.50
1415;DHT22;702;49.466;11.086;2022-10-03T19:23:51;9.60;96.90
1415;DHT22;702;49.466;11.086;2022-10-03T19:26:27;9.50;98.00
1415;DHT22;702;49.466;11.086;2022-10-03T19:28:59;9.40;99.10
1415;DHT22;702;49.466;11.086;2022-10-03T19:31:31;9.30;99.80
1415;DHT22;702;49.466;11.086;2022-10-03T19:34:03;9.30;99.90
1415;DHT22;702;49.466;11.086;2022-10-03T19:36:35;9.30;99.90
1415;DHT22;702;49.466;11.086;2022-10-03T19:39:11;9.30;99.90
1415;DHT22;702;49.466;11.086;2022-10-03T19:41:46;9.20;99.90
1415;DHT22;702;49.466;11.086;2022-10-03T19:44:18;9.30;99.90
1415;DHT22;702;49.466;11.086;2022-10-03T19:46:53;9.30;99.90
1415;DHT22;702;49.466;11.086;2022-10-03T19:49:31;9.30;99.90
1415;DHT22;702;49.466;11.086;2022-10-03T19:52:24;9.30;99.90
1415;DHT22;702;49.466;11.086;2022-10-03T19:54:59;9.30;99.90
1415;DHT22;702;49.466;11.086;2022-10-03T19:57:36;9.30;99.90
1415;DHT22;702;49.466;11.086;2022-10-03T20:00:18;9.30;99.90
1415;DHT22;702;49.466;11.086;2022-10-03T20:02:52;9.30;99.90
1415;DHT22;702;49.466;11.086;2022-10-03T20:05:24;9.20;99.90
1415;DHT22;702;49.466;11.086;2022-10-03T20:07:59;9.20;99.90
1415;DHT22;702;49.466;11.086;2022-10-03T20:10:39;9.20;99.90
1415;DHT22;702;49.466;11.086;2022-10-03T20:13:13;9.20;99.90
1415;DHT22;702;49.466;11.086;2022-10-03T20:15:43;9.20;99.90
1415;DHT22;702;49.466;11.086;2022-10-03T20:18:19;9.10;99.90
1415;DHT22;702;49.466;11.086;2022-10-03T20:20:54;9.10;99.90
1415;DHT22;702;49.466;11.086;2022-10-03T20:23:25;9.20;99.90
1415;DHT22;702;49.466;11.086;2022-10-03T20:25:58;9.30;99.90
1415;DHT22;702;49.466;11.086;2022-10-03T20:28:40;9.40;99.90
1415;DHT22;702;49.466;11.086;2022-10-03T20:31:20;9.30;99.90
1415;DHT22;702;49.466;11.086;2022-10-03T20:33:49;9.30;99.90
1415;DHT22;702;49.466;11.086;2022-10-03T20:36:20;9.10;99.90
1415;DHT22;702;49.466;11.086;2022-10-03T20:39:02;9.10;99.90
1415;DHT22;702;49.466;11.086;2022-10-03T20:41:56;9.00;99.90
1415;DHT22;702;49.466;11.086;2022-10-03T20:44:48;8.90;99.90
1415;DHT22;702;49.466;11.086;2022-10-03T20:50:23;8.60;99.90
1415;DHT22;702;49.466;11.086;2022-10-03T20:52:54;8.50;99.90
1415;DHT22;702;49.466;11.086;2022-10-03T20:55:25;8.40;99.90
1415;DHT22;702;49.466;11.086;2022-10-03T20:58:07;8.40;99.90
1415;DHT22;702;49.466;11.086;2022-10-03T21:00:44;8.30;99.90
1415;DHT22;702;49.466;11.086;2022-10-03T21:03:21;8.40;99.90